Time;durP1;ratioP1;P1;durP2;ratioP2;P2;SDS_P1;SDS_P2;PMS_P1;PMS_P2;Temp;Humidity;BMP_temperature;BMP_pressure;BME280_temperature;BME280_humidity;BME280_pressure;Samples;Min_cycle;Max_cycle;Signal;HPM_P1;HPM_P2
2023/09/04 00:00:40;;;;;;;;;;;;;;;;;;5094580;28;20073;-68
2023/09/04 00:03:07;;;;;;;;;;;;;;;;;;5092332;28;19931;-67
2023/09/04 00:05:34;;;;;;;;;;;;;;;;;;5092812;28;20364;-68
2023/09/04 00:08:01;;;;;;;;;;;;;;;;;;5085963;28;19924;-67
2023/09/04 00:10:28;;;;;;;;;;;;;;;;;;5094105;28;19931;-67
2023/09/04 00:12:55;;;;;;;;;;;;;;;;;;5094381;28;19977;-67
2023/09/04 00:15:22;;;;;;;;;;;;;;;;;;5094393;28;19930;-67
2023/09/04 00:17:50;;;;;;;;;;;;;;;;;;5091565;28;19924;-67
2023/09/04 00:20:17;;;;;;;;;;;;;;;;;;5093413;28;19928;-67
2023/09/04 00:22:44;;;;;;;;;;;;;;;;;;5091838;28;19928;-67
2023/09/04 00:25:11;;;;;;;;;;;;;;;;;;5092534;28;19924;-67
2023/09/04 00:27:38;;;;;;;;;;;;;;;;;;5089334;28;19925;-67
2023/09/04 00:30:05;;;;;;;;;;;;;;;;;;5093698;28;19932;-67
2023/09/04 00:32:32;;;;;;;;;;;;;;;;;;5091152;28;19924;-67
2023/09/04 00:34:59;;;;;;;;;;;;;;;;;;5092942;28;19924;-67
2023/09/04 00:37:26;;;;;;;;;;;;;;;;;;5092161;28;19924;-67
2023/09/04 00:39:53;;;;;;;;;;;;;;;;;;5091798;28;19982;-67
2023/09/04 00:42:20;;;;;;;;;;;;;;;;;;5092964;28;20353;-67
2023/09/04 00:44:50;;;;;;;;;;;;;;;;;;5093325;28;19924;-68
2023/09/04 00:47:17;;;;;;;;;;;;;;;;;;5087631;28;19924;-68
2023/09/04 00:49:44;;;;;;;;;;;;;;;;;;5091462;28;20323;-68
2023/09/04 00:52:11;;;;;;;;;;;;;;;;;;5092800;28;19977;-67
2023/09/04 00:54:38;;;;;;;;;;;;;;;;;;5091226;28;20353;-68
2023/09/04 00:57:05;;;;;;;;;;;;;;;;;;5091736;28;19936;-67
2023/09/04 00:59:32;;;;;;;;;;;;;;;;;;5092638;28;20386;-68
2023/09/04 01:01:59;;;;;;;;;;;;;;;;;;5091130;28;19928;-67
2023/09/04 01:04:26;;;;;;;;;;;;;;;;;;5091712;28;19924;-67
2023/09/04 01:06:53;;;;;;;;;;;;;;;;;;5091484;28;19977;-68
2023/09/04 01:09:21;;;;;;;;;;;;;;;;;;5079557;28;19930;-68
2023/09/04 01:11:47;;;;;;;;;;;;;;;;;;5088341;28;19924;-67
2023/09/04 01:14:14;;;;;;;;;;;;;;;;;;5089441;28;20032;-67
2023/09/04 01:16:41;;;;;;;;;;;;;;;;;;5089826;28;19924;-67
2023/09/04 01:19:10;;;;;;;;;;;;;;;;;;5091958;28;19924;-67
2023/09/04 01:21:37;;;;;;;;;;;;;;;;;;5091599;28;19932;-67
2023/09/04 01:24:04;;;;;;;;;;;;;;;;;;5092380;28;19983;-67
2023/09/04 01:26:31;;;;;;;;;;;;;;;;;;5091790;28;20387;-67
2023/09/04 01:28:58;;;;;;;;;;;;;;;;;;5093018;28;19977;-67
2023/09/04 01:31:25;;;;;;;;;;;;;;;;;;5086043;28;19979;-67
2023/09/04 01:33:52;;;;;;;;;;;;;;;;;;5085827;28;20460;-68
2023/09/04 01:36:19;;;;;;;;;;;;;;;;;;5091553;28;19977;-67
2023/09/04 01:38:46;;;;;;;;;;;;;;;;;;5089492;28;20660;-67
2023/09/04 01:41:13;;;;;;;;;;;;;;;;;;5088030;28;19924;-67
2023/09/04 01:43:40;;;;;;;;;;;;;;;;;;5091000;28;20060;-67
2023/09/04 01:46:07;;;;;;;;;;;;;;;;;;5088192;28;19999;-67
2023/09/04 01:48:35;;;;;;;;;;;;;;;;;;5091097;28;19977;-68
2023/09/04 01:51:01;;;;;;;;;;;;;;;;;;5092853;28;20018;-67
2023/09/04 01:53:28;;;;;;;;;;;;;;;;;;5091548;28;20303;-67
2023/09/04 01:55:55;;;;;;;;;;;;;;;;;;5092890;28;19928;-67
2023/09/04 01:58:22;;;;;;;;;;;;;;;;;;5089536;28;20032;-67
2023/09/04 02:00:49;;;;;;;;;;;;;;;;;;5092614;28;19969;-67
2023/09/04 02:03:17;;;;;;;;;;;;;;;;;;5090591;28;19967;-68
2023/09/04 02:05:44;;;;;;;;;;;;;;;;;;5091039;28;19950;-67
2023/09/04 02:08:11;;;;;;;;;;;;;;;;;;5092760;28;19924;-67
2023/09/04 02:10:38;;;;;;;;;;;;;;;;;;5092101;28;19975;-68
2023/09/04 02:13:05;;;;;;;;;;;;;;;;;;5092381;28;19924;-68
2023/09/04 02:15:32;;;;;;;;;;;;;;;;;;5092687;28;19924;-67
2023/09/04 02:18:01;;;;;;;;;;;;;;;;;;5090872;28;19931;-67
2023/09/04 02:20:28;;;;;;;;;;;;;;;;;;5089540;28;19931;-67
2023/09/04 02:22:55;;;;;;;;;;;;;;;;;;5082660;28;19924;-67
2023/09/04 02:25:23;;;;;;;;;;;;;;;;;;5091853;28;19924;-67
2023/09/04 02:27:50;;;;;;;;;;;;;;;;;;5088741;28;20284;-68
2023/09/04 02:30:17;;;;;;;;;;;;;;;;;;5089229;28;19924;-67
2023/09/04 02:32:44;;;;;;;;;;;;;;;;;;5090180;28;19924;-67
2023/09/04 02:35:11;;;;;;;;;;;;;;;;;;5091254;28;19924;-67
2023/09/04 02:37:38;;;;;;;;;;;;;;;;;;5089615;28;20001;-67
2023/09/04 02:40:06;;;;;;;;;;;;;;;;;;5088584;28;19997;-67
2023/09/04 02:42:33;;;;;;;;;;;;;;;;;;5091891;28;19924;-67
2023/09/04 02:45:00;;;;;;;;;;;;;;;;;;5091494;28;19924;-67
2023/09/04 02:47:27;;;;;;;;;;;;;;;;;;5089336;28;19963;-67
2023/09/04 02:49:55;;;;;;;;;;;;;;;;;;5088454;28;19950;-67
2023/09/04 02:52:22;;;;;;;;;;;;;;;;;;5089659;28;19932;-67
2023/09/04 02:54:49;;;;;;;;;;;;;;;;;;5090975;28;20373;-67
2023/09/04 02:57:16;;;;;;;;;;;;;;;;;;5081100;28;19928;-67
2023/09/04 02:59:43;;;;;;;;;;;;;;;;;;5091379;28;20456;-67
2023/09/04 03:02:10;;;;;;;;;;;;;;;;;;5083832;28;19928;-67
2023/09/04 03:04:37;;;;;;;;;;;;;;;;;;5090372;28;19950;-68
2023/09/04 03:07:04;;;;;;;;;;;;;;;;;;5078082;28;19924;-67
2023/09/04 03:09:32;;;;;;;;;;;;;;;;;;5091557;28;19950;-66
2023/09/04 03:11:59;;;;;;;;;;;;;;;;;;5088428;28;20031;-66
2023/09/04 03:14:27;;;;;;;;;;;;;;;;;;5090504;28;20015;-67
2023/09/04 03:16:54;;;;;;;;;;;;;;;;;;5091123;28;19947;-68
2023/09/04 03:19:21;;;;;;;;;;;;;;;;;;5091346;28;19924;-67
2023/09/04 03:21:48;;;;;;;;;;;;;;;;;;5089574;28;19940;-67
2023/09/04 03:24:15;;;;;;;;;;;;;;;;;;5093764;28;20302;-67
2023/09/04 03:26:42;;;;;;;;;;;;;;;;;;5094129;28;19924;-67
2023/09/04 03:29:09;;;;;;;;;;;;;;;;;;5094045;28;19924;-67
2023/09/04 03:31:36;;;;;;;;;;;;;;;;;;5091454;28;19970;-66
2023/09/04 03:34:03;;;;;;;;;;;;;;;;;;5094292;28;19968;-67
2023/09/04 03:36:30;;;;;;;;;;;;;;;;;;5093924;28;20334;-67
2023/09/04 03:38:57;;;;;;;;;;;;;;;;;;5094881;28;19924;-66
2023/09/04 03:41:24;;;;;;;;;;;;;;;;;;5093687;28;20387;-66
2023/09/04 03:43:51;;;;;;;;;;;;;;;;;;5092548;28;19932;-67
2023/09/04 03:46:18;;;;;;;;;;;;;;;;;;5089659;28;19928;-67
2023/09/04 03:48:45;;;;;;;;;;;;;;;;;;5087221;28;19924;-67
2023/09/04 03:51:12;;;;;;;;;;;;;;;;;;5091203;28;20306;-67
2023/09/04 03:53:39;;;;;;;;;;;;;;;;;;5074375;28;20287;-66
2023/09/04 03:56:06;;;;;;;;;;;;;;;;;;5076587;28;19929;-67
2023/09/04 03:58:33;;;;;;;;;;;;;;;;;;5094504;28;19924;-66
2023/09/04 04:01:00;;;;;;;;;;;;;;;;;;5090913;28;19928;-66
2023/09/04 04:03:27;;;;;;;;;;;;;;;;;;5084989;28;19986;-67
2023/09/04 04:05:54;;;;;;;;;;;;;;;;;;5093918;28;19954;-66
2023/09/04 04:08:21;;;;;;;;;;;;;;;;;;5094950;28;19924;-66
2023/09/04 04:10:48;;;;;;;;;;;;;;;;;;5094182;28;19924;-67
2023/09/04 04:13:15;;;;;;;;;;;;;;;;;;5087054;28;19986;-67
2023/09/04 04:15:43;;;;;;;;;;;;;;;;;;5092240;28;19928;-66
2023/09/04 04:18:10;;;;;;;;;;;;;;;;;;5090481;28;19931;-67
2023/09/04 04:20:37;;;;;;;;;;;;;;;;;;5090466;28;19928;-65
2023/09/04 04:23:05;;;;;;;;;;;;;;;;;;5090892;28;19931;-67
2023/09/04 04:25:32;;;;;;;;;;;;;;;;;;5093370;28;19930;-66
2023/09/04 04:27:59;;;;;;;;;;;;;;;;;;5091012;28;20023;-66
2023/09/04 04:30:26;;;;;;;;;;;;;;;;;;5091210;28;19924;-66
2023/09/04 04:32:53;;;;;;;;;;;;;;;;;;5086651;28;20378;-66
2023/09/04 04:35:20;;;;;;;;;;;;;;;;;;5077296;28;19989;-67
2023/09/04 04:37:47;;;;;;;;;;;;;;;;;;5090149;28;20298;-68
2023/09/04 04:40:14;;;;;;;;;;;;;;;;;;5073783;28;19932;-67
2023/09/04 04:42:41;;;;;;;;;;;;;;;;;;5089482;28;19924;-67
2023/09/04 04:45:08;;;;;;;;;;;;;;;;;;5091212;28;19993;-67
2023/09/04 04:47:35;;;;;;;;;;;;;;;;;;5088850;28;20486;-67
2023/09/04 04:50:02;;;;;;;;;;;;;;;;;;5091278;28;19970;-65
2023/09/04 04:52:29;;;;;;;;;;;;;;;;;;5091931;28;20325;-64
2023/09/04 04:54:56;;;;;;;;;;;;;;;;;;5090841;28;19924;-65
2023/09/04 04:57:23;;;;;;;;;;;;;;;;;;5092783;28;19928;-66
2023/09/04 04:59:50;;;;;;;;;;;;;;;;;;5092706;28;19931;-66
2023/09/04 05:02:17;;;;;;;;;;;;;;;;;;5090925;28;20363;-64
2023/09/04 05:04:45;;;;;;;;;;;;;;;;;;5092470;28;20018;-66
2023/09/04 05:07:13;;;;;;;;;;;;;;;;;;5091443;28;19924;-66
2023/09/04 05:09:40;;;;;;;;;;;;;;;;;;5091085;28;19928;-66
2023/09/04 05:12:07;;;;;;;;;;;;;;;;;;5084526;28;19993;-66
2023/09/04 05:14:34;;;;;;;;;;;;;;;;;;5084828;28;19985;-67
2023/09/04 05:17:01;;;;;;;;;;;;;;;;;;5091796;28;20272;-66
2023/09/04 05:19:28;;;;;;;;;;;;;;;;;;5090733;28;19924;-66
2023/09/04 05:21:55;;;;;;;;;;;;;;;;;;5091000;28;19978;-66
2023/09/04 05:24:22;;;;;;;;;;;;;;;;;;5085835;28;20036;-67
2023/09/04 05:26:49;;;;;;;;;;;;;;;;;;5088800;28;19956;-66
2023/09/04 05:29:16;;;;;;;;;;;;;;;;;;5084852;28;19925;-66
2023/09/04 05:31:43;;;;;;;;;;;;;;;;;;5086589;28;20028;-66
2023/09/04 05:34:10;;;;;;;;;;;;;;;;;;5092726;28;20324;-66
2023/09/04 05:36:37;;;;;;;;;;;;;;;;;;5090934;28;19928;-65
2023/09/04 05:39:04;;;;;;;;;;;;;;;;;;5087258;28;19928;-66
2023/09/04 05:41:31;;;;;;;;;;;;;;;;;;5086667;28;19924;-66
2023/09/04 05:43:58;;;;;;;;;;;;;;;;;;5091312;28;19924;-66
2023/09/04 05:46:25;;;;;;;;;;;;;;;;;;5088066;28;19924;-66
2023/09/04 05:48:53;;;;;;;;;;;;;;;;;;5091612;28;19924;-66
2023/09/04 05:51:20;;;;;;;;;;;;;;;;;;5092243;28;19931;-66
2023/09/04 05:53:47;;;;;;;;;;;;;;;;;;5092608;28;19928;-66
2023/09/04 05:56:14;;;;;;;;;;;;;;;;;;5092024;28;19924;-66
2023/09/04 05:58:41;;;;;;;;;;;;;;;;;;5085201;28;19925;-66
2023/09/04 06:01:08;;;;;;;;;;;;;;;;;;5086774;28;19924;-66
2023/09/04 06:03:35;;;;;;;;;;;;;;;;;;5090550;28;19998;-66
2023/09/04 06:06:03;;;;;;;;;;;;;;;;;;5091640;28;19970;-66
2023/09/04 06:08:30;;;;;;;;;;;;;;;;;;5084748;28;19989;-66
2023/09/04 06:10:57;;;;;;;;;;;;;;;;;;5071026;28;19964;-69
2023/09/04 06:13:24;;;;;;;;;;;;;;;;;;5081032;28;19931;-66
2023/09/04 06:15:51;;;;;;;;;;;;;;;;;;5079598;28;19935;-67
2023/09/04 06:18:19;;;;;;;;;;;;;;;;;;5088315;28;19924;-66
2023/09/04 06:20:46;;;;;;;;;;;;;;;;;;5089563;28;20378;-66
2023/09/04 06:23:13;;;;;;;;;;;;;;;;;;5089473;28;19928;-68
2023/09/04 06:25:42;;;;;;;;;;;;;;;;;;5079945;28;19924;-66
2023/09/04 06:28:09;;;;;;;;;;;;;;;;;;5090045;28;19924;-67
2023/09/04 06:30:35;;;;;;;;;;;;;;;;;;5085832;28;20387;-66
2023/09/04 06:33:02;;;;;;;;;;;;;;;;;;5074309;28;20413;-66
2023/09/04 06:35:29;;;;;;;;;;;;;;;;;;5078557;28;20292;-65
2023/09/04 06:37:57;;;;;;;;;;;;;;;;;;5083912;28;19985;-66
2023/09/04 06:40:24;;;;;;;;;;;;;;;;;;5089908;28;19928;-65
2023/09/04 06:42:53;;;;;;;;;;;;;;;;;;5074873;28;19925;-64
2023/09/04 06:45:20;;;;;;;;;;;;;;;;;;5079623;28;20345;-65
2023/09/04 06:47:47;;;;;;;;;;;;;;;;;;5074730;28;19924;-66
2023/09/04 06:50:14;;;;;;;;;;;;;;;;;;5077114;28;20065;-65
2023/09/04 06:52:41;;;;;;;;;;;;;;;;;;5091058;28;19924;-65
2023/09/04 06:55:09;;;;;;;;;;;;;;;;;;5088530;28;19928;-65
2023/09/04 06:57:36;;;;;;;;;;;;;;;;;;5088781;28;19970;-65
2023/09/04 07:00:06;;;;;;;;;;;;;;;;;;5090146;28;19978;-66
2023/09/04 07:02:34;;;;;;;;;;;;;;;;;;5086010;28;19977;-67
2023/09/04 07:05:01;;;;;;;;;;;;;;;;;;5085815;28;19932;-66
2023/09/04 07:07:28;;;;;;;;;;;;;;;;;;5089549;28;20336;-67
2023/09/04 07:09:55;;;;;;;;;;;;;;;;;;5085285;28;20028;-67
2023/09/04 07:12:22;;;;;;;;;;;;;;;;;;5085237;28;20288;-66
2023/09/04 07:14:49;;;;;;;;;;;;;;;;;;5080350;28;19939;-67
2023/09/04 07:17:16;;;;;;;;;;;;;;;;;;5088819;28;19924;-68
2023/09/04 07:19:43;;;;;;;;;;;;;;;;;;5087690;28;19928;-67
2023/09/04 07:22:10;;;;;;;;;;;;;;;;;;5085724;28;19924;-67
2023/09/04 07:24:37;;;;;;;;;;;;;;;;;;5085893;28;20379;-67
2023/09/04 07:27:05;;;;;;;;;;;;;;;;;;5092713;28;19928;-68
2023/09/04 07:29:32;;;;;;;;;;;;;;;;;;5085200;28;19924;-68
2023/09/04 07:31:59;;;;;;;;;;;;;;;;;;5088829;28;19924;-67
2023/09/04 07:34:26;;;;;;;;;;;;;;;;;;5085565;28;19928;-68
2023/09/04 07:36:53;;;;;;;;;;;;;;;;;;5089040;28;19973;-68
2023/09/04 07:39:20;;;;;;;;;;;;;;;;;;5085795;28;20010;-67
2023/09/04 07:41:47;;;;;;;;;;;;;;;;;;5078162;28;19967;-67
2023/09/04 07:44:14;;;;;;;;;;;;;;;;;;5085543;28;19993;-67
2023/09/04 07:46:41;;;;;;;;;;;;;;;;;;5089813;28;19985;-67
2023/09/04 07:49:08;;;;;;;;;;;;;;;;;;5090457;28;19939;-67
2023/09/04 07:51:35;;;;;;;;;;;;;;;;;;5084846;28;19964;-67
2023/09/04 07:54:02;;;;;;;;;;;;;;;;;;5086518;28;19924;-67
2023/09/04 07:56:30;;;;;;;;;;;;;;;;;;5091278;28;19967;-67
2023/09/04 07:58:58;;;;;;;;;;;;;;;;;;5087410;28;20279;-67
2023/09/04 08:01:30;;;;;;;;;;;;;;;;;;5093184;28;19977;-67
2023/09/04 08:03:57;;;;;;;;;;;;;;;;;;5089426;28;19928;-68
2023/09/04 08:06:24;;;;;;;;;;;;;;;;;;5091312;28;19965;-67
2023/09/04 08:08:52;;;;;;;;;;;;;;;;;;5088115;28;19928;-67
2023/09/04 08:11:19;;;;;;;;;;;;;;;;;;5085335;28;19977;-67
2023/09/04 08:13:46;;;;;;;;;;;;;;;;;;5092149;28;19977;-67
2023/09/04 08:16:13;;;;;;;;;;;;;;;;;;5085581;28;20291;-67
2023/09/04 08:18:40;;;;;;;;;;;;;;;;;;5087523;28;19928;-67
2023/09/04 08:21:07;;;;;;;;;;;;;;;;;;5089491;28;19969;-67
2023/09/04 08:23:34;;;;;;;;;;;;;;;;;;5087007;28;20367;-67
2023/09/04 08:26:01;;;;;;;;;;;;;;;;;;5089387;28;20286;-67
2023/09/04 08:28:28;;;;;;;;;;;;;;;;;;5093588;28;19924;-67
2023/09/04 08:30:55;;;;;;;;;;;;;;;;;;5086083;28;20311;-67
2023/09/04 08:33:22;;;;;;;;;;;;;;;;;;5089874;28;20449;-67
2023/09/04 08:35:49;;;;;;;;;;;;;;;;;;5083619;28;19978;-67
2023/09/04 08:38:16;;;;;;;;;;;;;;;;;;5084713;28;20471;-67
2023/09/04 08:40:43;;;;;;;;;;;;;;;;;;5084706;28;19982;-66
2023/09/04 08:43:10;;;;;;;;;;;;;;;;;;5086877;28;20006;-67
2023/09/04 08:45:37;;;;;;;;;;;;;;;;;;5085876;28;19986;-67
2023/09/04 08:48:04;;;;;;;;;;;;;;;;;;5092517;28;19930;-68
2023/09/04 08:50:31;;;;;;;;;;;;;;;;;;5089787;28;20408;-67
2023/09/04 08:52:58;;;;;;;;;;;;;;;;;;5087175;28;20456;-68
2023/09/04 08:55:25;;;;;;;;;;;;;;;;;;5091520;28;19935;-67
2023/09/04 08:57:52;;;;;;;;;;;;;;;;;;5091671;28;20027;-68
2023/09/04 09:00:19;;;;;;;;;;;;;;;;;;5087990;28;19931;-67
2023/09/04 09:02:46;;;;;;;;;;;;;;;;;;5093029;28;19928;-67
2023/09/04 09:05:13;;;;;;;;;;;;;;;;;;5089659;28;19993;-67
2023/09/04 09:07:40;;;;;;;;;;;;;;;;;;5086414;28;19928;-67
2023/09/04 09:10:07;;;;;;;;;;;;;;;;;;5087054;28;19970;-68
2023/09/04 09:12:34;;;;;;;;;;;;;;;;;;5082736;28;19936;-67
2023/09/04 09:15:01;;;;;;;;;;;;;;;;;;5088441;28;19985;-68
2023/09/04 09:17:29;;;;;;;;;;;;;;;;;;5091013;28;19981;-68
2023/09/04 09:19:56;;;;;;;;;;;;;;;;;;5086506;28;19944;-68
2023/09/04 09:22:23;;;;;;;;;;;;;;;;;;5091954;28;19928;-68
2023/09/04 09:24:50;;;;;;;;;;;;;;;;;;5091539;28;19924;-68
2023/09/04 09:27:17;;;;;;;;;;;;;;;;;;5085146;28;20011;-67
2023/09/04 09:29:44;;;;;;;;;;;;;;;;;;5078152;28;19924;-68
2023/09/04 09:32:11;;;;;;;;;;;;;;;;;;5092228;28;19924;-68
2023/09/04 09:34:38;;;;;;;;;;;;;;;;;;5076884;28;19924;-68
2023/09/04 09:37:05;;;;;;;;;;;;;;;;;;5088058;28;19924;-68
2023/09/04 09:39:33;;;;;;;;;;;;;;;;;;5087344;28;19924;-68
2023/09/04 09:42:00;;;;;;;;;;;;;;;;;;5091682;28;20288;-68
2023/09/04 09:44:28;;;;;;;;;;;;;;;;;;5084246;28;19924;-67
2023/09/04 09:46:55;;;;;;;;;;;;;;;;;;5087579;28;19924;-67
2023/09/04 09:49:22;;;;;;;;;;;;;;;;;;5082080;28;19924;-67
2023/09/04 09:51:49;;;;;;;;;;;;;;;;;;5078595;28;19977;-67
2023/09/04 09:54:17;;;;;;;;;;;;;;;;;;5080215;28;19947;-67
2023/09/04 09:56:45;;;;;;;;;;;;;;;;;;5081778;28;19924;-67
2023/09/04 09:59:12;;;;;;;;;;;;;;;;;;5084389;28;19928;-67
2023/09/04 10:01:39;;;;;;;;;;;;;;;;;;5082349;28;19928;-67
2023/09/04 10:04:06;;;;;;;;;;;;;;;;;;5090185;28;19975;-67
2023/09/04 10:06:35;;;;;;;;;;;;;;;;;;5084025;28;19928;-67
2023/09/04 10:09:02;;;;;;;;;;;;;;;;;;5088018;28;19970;-67
2023/09/04 10:11:29;;;;;;;;;;;;;;;;;;5085047;28;20008;-67
2023/09/04 10:13:56;;;;;;;;;;;;;;;;;;5082758;28;19925;-68
2023/09/04 10:16:28;;;;;;;;;;;;;;;;;;5086606;28;20287;-67
2023/09/04 10:18:55;;;;;;;;;;;;;;;;;;5085311;28;19924;-67
2023/09/04 10:21:22;;;;;;;;;;;;;;;;;;5081114;28;20001;-67
2023/09/04 10:23:49;;;;;;;;;;;;;;;;;;5090380;28;19995;-67
2023/09/04 10:26:16;;;;;;;;;;;;;;;;;;5094478;28;20295;-67
2023/09/04 10:28:43;;;;;;;;;;;;;;;;;;5096812;28;19928;-67
2023/09/04 10:31:10;;;;;;;;;;;;;;;;;;5091348;28;19924;-67
2023/09/04 10:33:37;;;;;;;;;;;;;;;;;;5092594;28;19931;-67
2023/09/04 10:36:05;;;;;;;;;;;;;;;;;;5085580;28;19981;-65
2023/09/04 10:38:32;;;;;;;;;;;;;;;;;;5093552;28;19924;-65
2023/09/04 10:40:59;;;;;;;;;;;;;;;;;;5095218;28;20348;-64
2023/09/04 10:43:26;;;;;;;;;;;;;;;;;;5098538;28;19935;-63
2023/09/04 10:45:53;;;;;;;;;;;;;;;;;;5097106;28;19924;-67
2023/09/04 10:48:20;;;;;;;;;;;;;;;;;;5097223;28;19924;-68
2023/09/04 10:50:47;;;;;;;;;;;;;;;;;;5088536;28;19936;-68
2023/09/04 10:53:14;;;;;;;;;;;;;;;;;;5088961;28;19924;-69
2023/09/04 10:55:41;;;;;;;;;;;;;;;;;;5085956;28;20298;-68
2023/09/04 10:58:08;;;;;;;;;;;;;;;;;;5096453;28;19969;-68
2023/09/04 11:00:35;;;;;;;;;;;;;;;;;;5091566;28;19924;-67
2023/09/04 11:03:02;;;;;;;;;;;;;;;;;;5085435;28;19931;-67
2023/09/04 11:05:29;;;;;;;;;;;;;;;;;;5088360;28;19932;-68
2023/09/04 11:07:56;;;;;;;;;;;;;;;;;;5081182;28;19978;-67
2023/09/04 11:10:29;;;;;;;;;;;;;;;;;;5089319;28;20360;-67
2023/09/04 11:12:56;;;;;;;;;;;;;;;;;;5094402;28;19935;-67
2023/09/04 11:15:24;;;;;;;;;;;;;;;;;;5096123;28;19924;-67
2023/09/04 11:17:51;;;;;;;;;;;;;;;;;;5085674;28;19932;-67
2023/09/04 11:20:18;;;;;;;;;;;;;;;;;;5090324;28;19993;-67
2023/09/04 11:22:45;;;;;;;;;;;;;;;;;;5094370;28;19977;-67
2023/09/04 11:25:12;;;;;;;;;;;;;;;;;;5088578;28;19978;-67
2023/09/04 11:27:39;;;;;;;;;;;;;;;;;;5094241;28;19971;-67
2023/09/04 11:30:06;;;;;;;;;;;;;;;;;;5094592;28;20402;-67
2023/09/04 11:32:33;;;;;;;;;;;;;;;;;;5094879;28;19950;-67
2023/09/04 11:35:00;;;;;;;;;;;;;;;;;;5089898;28;19928;-67
2023/09/04 11:37:27;;;;;;;;;;;;;;;;;;5092215;28;19925;-67
2023/09/04 11:39:54;;;;;;;;;;;;;;;;;;5093933;28;19924;-66
2023/09/04 11:42:21;;;;;;;;;;;;;;;;;;5085805;28;19924;-66
2023/09/04 11:44:49;;;;;;;;;;;;;;;;;;5087254;28;19928;-67
2023/09/04 11:47:16;;;;;;;;;;;;;;;;;;5093527;28;19928;-67
2023/09/04 11:49:43;;;;;;;;;;;;;;;;;;5089381;28;19936;-67
2023/09/04 11:52:10;;;;;;;;;;;;;;;;;;5092395;28;19928;-67
2023/09/04 11:54:37;;;;;;;;;;;;;;;;;;5085110;28;19928;-66
2023/09/04 11:57:04;;;;;;;;;;;;;;;;;;5082966;28;19925;-67
2023/09/04 11:59:31;;;;;;;;;;;;;;;;;;5080657;28;19931;-67
2023/09/04 12:01:58;;;;;;;;;;;;;;;;;;5085527;28;19969;-67
2023/09/04 12:04:25;;;;;;;;;;;;;;;;;;5089282;28;19924;-66
2023/09/04 12:06:52;;;;;;;;;;;;;;;;;;5091316;28;19957;-66
2023/09/04 12:09:19;;;;;;;;;;;;;;;;;;5089156;28;20452;-67
2023/09/04 12:11:46;;;;;;;;;;;;;;;;;;5091953;28;19924;-67
2023/09/04 12:14:14;;;;;;;;;;;;;;;;;;5093486;28;19992;-68
2023/09/04 12:16:41;;;;;;;;;;;;;;;;;;5089052;28;19939;-68
2023/09/04 12:19:08;;;;;;;;;;;;;;;;;;5088071;28;19953;-68
2023/09/04 12:21:35;;;;;;;;;;;;;;;;;;5091401;28;19924;-68
2023/09/04 12:24:03;;;;;;;;;;;;;;;;;;5091510;28;20375;-68
2023/09/04 12:26:30;;;;;;;;;;;;;;;;;;5088773;28;19928;-68
2023/09/04 12:28:57;;;;;;;;;;;;;;;;;;5092368;28;19946;-68
2023/09/04 12:31:24;;;;;;;;;;;;;;;;;;5092017;28;20073;-68
2023/09/04 12:33:51;;;;;;;;;;;;;;;;;;5090658;28;19924;-68
2023/09/04 12:36:21;;;;;;;;;;;;;;;;;;5093371;28;19931;-68
2023/09/04 12:38:48;;;;;;;;;;;;;;;;;;5090931;28;19924;-66
2023/09/04 12:41:15;;;;;;;;;;;;;;;;;;5088962;28;19932;-68
2023/09/04 12:43:42;;;;;;;;;;;;;;;;;;5084230;28;19925;-69
2023/09/04 12:46:09;;;;;;;;;;;;;;;;;;5089315;28;19972;-68
2023/09/04 12:48:37;;;;;;;;;;;;;;;;;;5092404;28;19925;-68
2023/09/04 12:51:04;;;;;;;;;;;;;;;;;;5085167;28;19987;-67
2023/09/04 12:53:31;;;;;;;;;;;;;;;;;;5088533;28;20014;-68
2023/09/04 12:55:58;;;;;;;;;;;;;;;;;;5091438;28;19924;-68
2023/09/04 12:58:25;;;;;;;;;;;;;;;;;;5092311;28;19925;-67
2023/09/04 13:00:53;;;;;;;;;;;;;;;;;;5091314;28;20621;-68
2023/09/04 13:03:23;;;;;;;;;;;;;;;;;;5088757;28;19927;-68
2023/09/04 13:05:54;;;;;;;;;;;;;;;;;;5090754;28;19928;-69
2023/09/04 13:08:21;;;;;;;;;;;;;;;;;;5080646;28;19938;-68
2023/09/04 13:10:48;;;;;;;;;;;;;;;;;;5087959;28;19928;-68
2023/09/04 13:13:15;;;;;;;;;;;;;;;;;;5084561;28;20371;-68
2023/09/04 13:15:42;;;;;;;;;;;;;;;;;;5085826;28;19970;-68
2023/09/04 13:18:09;;;;;;;;;;;;;;;;;;5090530;28;19924;-68
2023/09/04 13:20:36;;;;;;;;;;;;;;;;;;5086294;28;19925;-68
2023/09/04 13:23:03;;;;;;;;;;;;;;;;;;5091336;28;20299;-68
2023/09/04 13:25:30;;;;;;;;;;;;;;;;;;5089803;28;19924;-69
2023/09/04 13:27:57;;;;;;;;;;;;;;;;;;5089962;28;19931;-68
2023/09/04 13:30:24;;;;;;;;;;;;;;;;;;5087106;28;19924;-68
2023/09/04 13:32:51;;;;;;;;;;;;;;;;;;5090316;28;19924;-68
2023/09/04 13:35:18;;;;;;;;;;;;;;;;;;5077212;28;19924;-68
2023/09/04 13:37:45;;;;;;;;;;;;;;;;;;5080540;28;20398;-68
2023/09/04 13:40:12;;;;;;;;;;;;;;;;;;5081179;28;19928;-68
2023/09/04 13:42:39;;;;;;;;;;;;;;;;;;5083918;28;19924;-68
2023/09/04 13:45:06;;;;;;;;;;;;;;;;;;5079248;28;19928;-68
2023/09/04 13:47:33;;;;;;;;;;;;;;;;;;5072166;28;19924;-68
2023/09/04 13:50:00;;;;;;;;;;;;;;;;;;5073081;28;20345;-68
2023/09/04 13:52:27;;;;;;;;;;;;;;;;;;5088851;28;19975;-68
2023/09/04 13:54:55;;;;;;;;;;;;;;;;;;5087910;28;20336;-69
2023/09/04 13:57:22;;;;;;;;;;;;;;;;;;5092258;28;20293;-68
2023/09/04 13:59:49;;;;;;;;;;;;;;;;;;5085832;28;19924;-68
2023/09/04 14:02:16;;;;;;;;;;;;;;;;;;5085330;28;20444;-68
2023/09/04 14:04:43;;;;;;;;;;;;;;;;;;5089271;28;19932;-68
2023/09/04 14:07:10;;;;;;;;;;;;;;;;;;5091761;28;19986;-68
2023/09/04 14:09:37;;;;;;;;;;;;;;;;;;5089405;28;20015;-68
2023/09/04 14:12:04;;;;;;;;;;;;;;;;;;5088503;28;20015;-68
2023/09/04 14:14:31;;;;;;;;;;;;;;;;;;5089411;28;19928;-68
2023/09/04 14:16:58;;;;;;;;;;;;;;;;;;5082972;28;19924;-69
2023/09/04 14:19:26;;;;;;;;;;;;;;;;;;5083831;28;20409;-68
2023/09/04 14:21:53;;;;;;;;;;;;;;;;;;5089583;28;19977;-68
2023/09/04 14:24:20;;;;;;;;;;;;;;;;;;5090352;28;20404;-68
2023/09/04 14:26:48;;;;;;;;;;;;;;;;;;5087667;28;19924;-68
2023/09/04 14:29:15;;;;;;;;;;;;;;;;;;5087097;28;19924;-69
2023/09/04 14:31:42;;;;;;;;;;;;;;;;;;5087304;28;20440;-69
2023/09/04 14:34:09;;;;;;;;;;;;;;;;;;5078360;28;20513;-67
2023/09/04 14:36:36;;;;;;;;;;;;;;;;;;5081431;28;20303;-67
2023/09/04 14:39:03;;;;;;;;;;;;;;;;;;5073458;28;19970;-68
2023/09/04 14:41:32;;;;;;;;;;;;;;;;;;5075784;28;19994;-69
2023/09/04 14:43:59;;;;;;;;;;;;;;;;;;5089718;28;19928;-69
2023/09/04 14:46:26;;;;;;;;;;;;;;;;;;5082402;28;20406;-69
2023/09/04 14:48:53;;;;;;;;;;;;;;;;;;5083035;28;19924;-67
2023/09/04 14:51:20;;;;;;;;;;;;;;;;;;5084319;28;19944;-67
2023/09/04 14:53:47;;;;;;;;;;;;;;;;;;5073159;28;19931;-67
2023/09/04 14:56:14;;;;;;;;;;;;;;;;;;5081196;28;20371;-67
2023/09/04 14:58:41;;;;;;;;;;;;;;;;;;5079465;28;19932;-67
2023/09/04 15:01:08;;;;;;;;;;;;;;;;;;5086947;28;19994;-67
2023/09/04 15:03:35;;;;;;;;;;;;;;;;;;5079610;28;19932;-67
2023/09/04 15:06:02;;;;;;;;;;;;;;;;;;5075950;28;20014;-67
2023/09/04 15:08:29;;;;;;;;;;;;;;;;;;5076251;28;20002;-67
2023/09/04 15:10:56;;;;;;;;;;;;;;;;;;5084361;28;19924;-68
2023/09/04 15:13:23;;;;;;;;;;;;;;;;;;5083043;28;20369;-67
2023/09/04 15:15:51;;;;;;;;;;;;;;;;;;5086967;28;20025;-67
2023/09/04 15:18:18;;;;;;;;;;;;;;;;;;5084057;28;20030;-67
2023/09/04 15:20:48;;;;;;;;;;;;;;;;;;5090629;28;20019;-67
2023/09/04 15:23:15;;;;;;;;;;;;;;;;;;5089982;28;19989;-68
2023/09/04 15:25:43;;;;;;;;;;;;;;;;;;5077019;28;20397;-68
2023/09/04 15:28:10;;;;;;;;;;;;;;;;;;5087623;28;19931;-68
2023/09/04 15:30:37;;;;;;;;;;;;;;;;;;5087217;28;20003;-68
2023/09/04 15:33:04;;;;;;;;;;;;;;;;;;5077336;28;20007;-68
2023/09/04 15:35:31;;;;;;;;;;;;;;;;;;5080325;28;19932;-68
2023/09/04 15:37:58;;;;;;;;;;;;;;;;;;5083385;28;19924;-68
2023/09/04 15:40:25;;;;;;;;;;;;;;;;;;5086629;28;19967;-67
2023/09/04 15:42:52;;;;;;;;;;;;;;;;;;5079546;28;19928;-68
2023/09/04 15:45:19;;;;;;;;;;;;;;;;;;5087692;28;19983;-69
2023/09/04 15:47:46;;;;;;;;;;;;;;;;;;5082223;28;19989;-68
2023/09/04 15:50:13;;;;;;;;;;;;;;;;;;5088489;28;19924;-68
2023/09/04 15:52:40;;;;;;;;;;;;;;;;;;5089887;28;19924;-68
2023/09/04 15:55:07;;;;;;;;;;;;;;;;;;5088883;28;20314;-68
2023/09/04 15:57:34;;;;;;;;;;;;;;;;;;5090803;28;19969;-68
2023/09/04 16:00:02;;;;;;;;;;;;;;;;;;5093438;28;19998;-68
2023/09/04 16:02:29;;;;;;;;;;;;;;;;;;5084998;28;20411;-67
2023/09/04 16:04:56;;;;;;;;;;;;;;;;;;5084900;28;19924;-67
2023/09/04 16:07:23;;;;;;;;;;;;;;;;;;5077910;28;19924;-67
2023/09/04 16:09:50;;;;;;;;;;;;;;;;;;5089643;28;19928;-67
2023/09/04 16:12:17;;;;;;;;;;;;;;;;;;5084224;28;19924;-68
2023/09/04 16:14:44;;;;;;;;;;;;;;;;;;5089276;28;19932;-72
2023/09/04 16:17:13;;;;;;;;;;;;;;;;;;5075927;28;19924;-71
2023/09/04 16:19:40;;;;;;;;;;;;;;;;;;5092117;28;19931;-69
2023/09/04 16:22:07;;;;;;;;;;;;;;;;;;5086626;28;20405;-68
2023/09/04 16:24:34;;;;;;;;;;;;;;;;;;5085973;28;20310;-68
2023/09/04 16:27:01;;;;;;;;;;;;;;;;;;5079002;28;19935;-68
2023/09/04 16:29:28;;;;;;;;;;;;;;;;;;5092249;28;19935;-68
2023/09/04 16:31:55;;;;;;;;;;;;;;;;;;5078694;28;19924;-68
2023/09/04 16:34:22;;;;;;;;;;;;;;;;;;5083936;28;19936;-69
2023/09/04 16:36:49;;;;;;;;;;;;;;;;;;5090486;28;20069;-68
2023/09/04 16:39:16;;;;;;;;;;;;;;;;;;5093088;28;19935;-68
2023/09/04 16:41:44;;;;;;;;;;;;;;;;;;5086384;28;19981;-69
2023/09/04 16:44:11;;;;;;;;;;;;;;;;;;5088504;28;19932;-69